createdAt,value
2023-04-08T00:00:57.843Z,94366.69
2023-04-08T00:03:24.640Z,94359.38
2023-04-08T00:05:51.403Z,94361.88
2023-04-08T00:08:18.287Z,94365.91
2023-04-08T00:10:44.918Z,94363.06
2023-04-08T00:13:11.742Z,94361.09
2023-04-08T00:15:38.387Z,94368.97
2023-04-08T00:18:06.924Z,94372.41
2023-04-08T00:20:34.128Z,94375.56
2023-04-08T00:23:00.907Z,94376.38
2023-04-08T00:25:27.630Z,94368.88
2023-04-08T00:27:54.255Z,94363.13
2023-04-08T00:30:21.582Z,94370.25
2023-04-08T00:32:48.346Z,94364.31
2023-04-08T00:35:15.484Z,94368.56
2023-04-08T00:37:42.380Z,94364.91
2023-04-08T00:40:09.512Z,94360.16
2023-04-08T00:42:36.705Z,94364.41
2023-04-08T00:45:03.845Z,94361.25
2023-04-08T00:47:30.743Z,94361.75
2023-04-08T00:49:57.596Z,94369.44
2023-04-08T00:52:24.228Z,94362.25
2023-04-08T00:54:50.960Z,94368.13
2023-04-08T00:57:18.619Z,94366.88
2023-04-08T00:59:45.358Z,94363.91
2023-04-08T01:02:19.416Z,94361.75
2023-04-08T01:04:59.802Z,94364.69
2023-04-08T01:07:41.395Z,94361.94
2023-04-08T01:10:16.081Z,94364.91
2023-04-08T01:12:50.299Z,94368.66
2023-04-08T01:15:17.723Z,94360.06
2023-04-08T01:17:45.732Z,94353.66
2023-04-08T01:20:15.064Z,94349.13
2023-04-08T01:23:00.130Z,94361.34
2023-04-08T01:25:35.663Z,94362.75
2023-04-08T01:28:06.867Z,94359.00
2023-04-08T01:30:35.794Z,94359.38
2023-04-08T01:33:04.071Z,94361.75
2023-04-08T01:35:31.648Z,94354.03
2023-04-08T01:37:59.532Z,94357.00
2023-04-08T01:40:26.540Z,94363.91
2023-04-08T01:42:57.664Z,94359.09
2023-04-08T01:45:25.652Z,94360.94
2023-04-08T01:47:53.512Z,94361.75
2023-04-08T01:50:21.474Z,94360.94
2023-04-08T01:52:49.899Z,94352.78
2023-04-08T01:55:17.437Z,94356.53
2023-04-08T01:57:49.892Z,94359.19
2023-04-08T02:00:20.591Z,94356.63
2023-04-08T02:02:48.548Z,94353.09
2023-04-08T02:05:15.613Z,94359.38
2023-04-08T02:07:42.378Z,94360.94
2023-04-08T02:10:09.603Z,94358.00
2023-04-08T02:12:36.438Z,94358.81
2023-04-08T02:15:03.535Z,94358.19
2023-04-08T02:17:43.562Z,94363.72
2023-04-08T02:20:19.075Z,94368.03
2023-04-08T02:22:57.818Z,94358.78
2023-04-08T02:25:26.202Z,94359.56
2023-04-08T02:27:54.802Z,94357.22
2023-04-08T02:30:22.583Z,94360.34
2023-04-08T02:32:50.385Z,94363.19
2023-04-08T02:35:18.026Z,94363.47
2023-04-08T02:37:47.963Z,94369.59
2023-04-08T02:40:23.925Z,94370.09
2023-04-08T02:42:50.636Z,94368.03
2023-04-08T02:45:18.126Z,94367.38
2023-04-08T02:47:44.840Z,94361.84
2023-04-08T02:50:11.574Z,94365.59
2023-04-08T02:52:38.340Z,94372.69
2023-04-08T02:55:10.052Z,94366.38
2023-04-08T02:57:37.904Z,94365.78
2023-04-08T03:00:05.423Z,94366.09
2023-04-08T03:02:32.204Z,94367.97
2023-04-08T03:04:59.319Z,94371.81
2023-04-08T03:07:26.268Z,94376.34
2023-04-08T03:09:55.132Z,94377.94
2023-04-08T03:12:22.404Z,94365.09
2023-04-08T03:14:50.016Z,94370.13
2023-04-08T03:17:17.074Z,94368.25
2023-04-08T03:19:43.713Z,94367.38
2023-04-08T03:22:10.396Z,94364.41
2023-04-08T03:24:37.395Z,94363.31
2023-04-08T03:27:04.207Z,94370.53
2023-04-08T03:29:31.122Z,94367.06
2023-04-08T03:31:58.107Z,94369.06
2023-04-08T03:34:24.835Z,94366.19
2023-04-08T03:36:51.574Z,94368.06
2023-04-08T03:39:19.862Z,94368.25
2023-04-08T03:41:46.530Z,94367.97
2023-04-08T03:44:13.171Z,94368.84
2023-04-08T03:46:39.864Z,94375.56
2023-04-08T03:49:07.418Z,94375.56
2023-04-08T03:51:34.208Z,94378.78
2023-04-08T03:54:00.944Z,94370.31
2023-04-08T03:56:27.722Z,94373.59
2023-04-08T03:58:54.424Z,94373.41
2023-04-08T04:01:21.217Z,94368.28
2023-04-08T04:03:48.059Z,94370.16
2023-04-08T04:06:14.846Z,94366.28
2023-04-08T04:08:41.537Z,94368.44
2023-04-08T04:11:08.231Z,94371.72
2023-04-08T04:13:35.619Z,94373.59
2023-04-08T04:16:02.342Z,94372.50
2023-04-08T04:18:29.142Z,94359.78
2023-04-08T04:20:55.962Z,94374.69
2023-04-08T04:23:24.447Z,94373.69
2023-04-08T04:25:51.159Z,94368.47
2023-04-08T04:28:17.859Z,94374.00
2023-04-08T04:30:44.673Z,94375.78
2023-04-08T04:33:11.380Z,94377.16
2023-04-08T04:35:39.786Z,94376.97
2023-04-08T04:38:11.011Z,94379.72
2023-04-08T04:40:37.758Z,94389.38
2023-04-08T04:43:04.652Z,94389.09
2023-04-08T04:45:31.338Z,94387.94
2023-04-08T04:47:58.097Z,94393.25
2023-04-08T04:50:24.888Z,94386.66
2023-04-08T04:52:51.494Z,94398.00
2023-04-08T04:55:18.350Z,94400.16
2023-04-08T04:57:45.116Z,94400.25
2023-04-08T05:00:12.283Z,94397.38
2023-04-08T05:02:39.116Z,94401.63
2023-04-08T05:05:06.691Z,94390.78
2023-04-08T05:07:37.067Z,94408.72
2023-04-08T05:10:04.673Z,94404.69
2023-04-08T05:12:31.503Z,94410.50
2023-04-08T05:14:59.625Z,94413.44
2023-04-08T05:17:26.617Z,94409.41
2023-04-08T05:19:53.699Z,94414.72
2023-04-08T05:22:20.474Z,94413.34
2023-04-08T05:24:47.117Z,94409.91
2023-04-08T05:27:13.777Z,94418.19
2023-04-08T05:29:40.434Z,94417.97
2023-04-08T05:32:07.326Z,94417.19
2023-04-08T05:34:34.039Z,94431.00
2023-04-08T05:37:00.898Z,94426.47
2023-04-08T05:39:27.600Z,94432.16
2023-04-08T05:41:54.361Z,94430.22
2023-04-08T05:44:21.041Z,94427.94
2023-04-08T05:46:47.814Z,94423.69
2023-04-08T05:49:14.461Z,94433.75
2023-04-08T05:51:41.199Z,94431.09
2023-04-08T05:54:07.873Z,94435.69
2023-04-08T05:56:35.061Z,94438.06
2023-04-08T05:59:01.714Z,94442.41
2023-04-08T06:01:28.360Z,94444.75
2023-04-08T06:03:56.616Z,94441.72
2023-04-08T06:06:23.991Z,94451.88
2023-04-08T06:08:50.818Z,94452.38
2023-04-08T06:11:17.862Z,94447.34
2023-04-08T06:13:44.491Z,94452.09
2023-04-08T06:16:19.600Z,94455.53
2023-04-08T06:18:48.229Z,94454.16
2023-04-08T06:21:15.396Z,94459.97
2023-04-08T06:23:42.056Z,94463.13
2023-04-08T06:26:08.746Z,94466.88
2023-04-08T06:28:35.585Z,94464.00
2023-04-08T06:31:02.276Z,94468.63
2023-04-08T06:33:29.026Z,94464.88
2023-04-08T06:36:06.650Z,94459.56
2023-04-08T06:38:33.809Z,94466.66
2023-04-08T06:41:04.995Z,94468.16
2023-04-08T06:43:32.324Z,94464.91
2023-04-08T06:45:59.434Z,94468.06
2023-04-08T06:48:30.732Z,94475.88
2023-04-08T06:50:58.864Z,94465.00
2023-04-08T06:53:26.470Z,94466.69
2023-04-08T06:55:53.317Z,94461.00
2023-04-08T06:58:20.116Z,94465.22
2023-04-08T07:00:47.425Z,94476.84
2023-04-08T07:03:14.290Z,94473.09
2023-04-08T07:05:42.233Z,94476.78
2023-04-08T07:08:09.174Z,94473.81
2023-04-08T07:10:36.315Z,94476.09
2023-04-08T07:13:04.163Z,94487.03
2023-04-08T07:15:31.231Z,94480.31
2023-04-08T07:17:58.940Z,94484.94
2023-04-08T07:20:26.245Z,94486.44
2023-04-08T07:22:52.952Z,94489.38
2023-04-08T07:25:19.731Z,94488.16
2023-04-08T07:27:46.637Z,94493.41
2023-04-08T07:30:13.380Z,94493.09
2023-04-08T07:32:40.156Z,94501.97
2023-04-08T07:35:07.232Z,94496.59
2023-04-08T07:37:33.969Z,94496.25
2023-04-08T07:40:00.894Z,94493.16
2023-04-08T07:42:27.620Z,94485.69
2023-04-08T07:44:54.462Z,94497.34
2023-04-08T07:47:21.257Z,94498.31
2023-04-08T07:49:48.495Z,94494.47
2023-04-08T07:52:15.812Z,94494.75
2023-04-08T07:54:42.658Z,94494.75
2023-04-08T07:57:09.338Z,94500.28
2023-04-08T07:59:36.241Z,94499.69
2023-04-08T08:02:03.493Z,94503.13
2023-04-08T08:04:30.525Z,94506.59
2023-04-08T08:06:57.263Z,94503.28
2023-04-08T08:09:24.098Z,94514.59
2023-04-08T08:11:50.908Z,94513.53
2023-04-08T08:14:17.619Z,94513.91
2023-04-08T08:16:44.757Z,94510.50
2023-04-08T08:19:12.443Z,94514.56
2023-04-08T08:21:39.720Z,94514.56
2023-04-08T08:24:07.025Z,94524.94
2023-04-08T08:26:39.672Z,94523.59
2023-04-08T08:29:08.744Z,94526.53
2023-04-08T08:31:35.840Z,94534.59
2023-04-08T08:34:03.002Z,94530.00
2023-04-08T08:36:29.723Z,94538.53
2023-04-08T08:38:56.459Z,94536.69
2023-04-08T08:41:23.367Z,94533.09
2023-04-08T08:43:50.555Z,94539.22
2023-04-08T08:46:19.436Z,94545.53
2023-04-08T08:48:46.599Z,94551.50
2023-04-08T08:51:14.695Z,94549.97
2023-04-08T08:53:45.648Z,94547.44
2023-04-08T08:58:42.063Z,94558.50
2023-04-08T09:01:35.299Z,94559.91
2023-04-08T09:04:22.832Z,94566.56
2023-04-08T09:06:51.693Z,94562.69
2023-04-08T09:09:18.510Z,94561.59
2023-04-08T09:11:47.257Z,94557.16
2023-04-08T09:14:26.370Z,94556.91
2023-04-08T09:16:53.611Z,94557.88
2023-04-08T09:19:20.783Z,94565.59
2023-04-08T09:22:04.964Z,94561.81
2023-04-08T09:24:32.091Z,94561.53
2023-04-08T09:26:58.982Z,94568.88
2023-04-08T09:29:28.137Z,94569.19
2023-04-08T09:31:58.573Z,94565.66
2023-04-08T09:34:27.529Z,94566.47
2023-04-08T09:36:56.080Z,94570.28
2023-04-08T09:39:23.010Z,94568.88
2023-04-08T09:41:51.889Z,94565.50
2023-04-08T09:44:21.385Z,94562.13
2023-04-08T09:46:51.728Z,94565.38
2023-04-08T09:49:31.367Z,94566.44
2023-04-08T09:52:11.891Z,94551.56
2023-04-08T09:54:48.024Z,94564.03
2023-04-08T09:57:20.593Z,94560.75
2023-04-08T09:59:56.699Z,94567.78
2023-04-08T10:02:31.181Z,94564.03
2023-04-08T10:05:00.227Z,94566.22
2023-04-08T10:07:27.062Z,94571.38
2023-04-08T10:09:53.992Z,94564.34
2023-04-08T10:12:20.978Z,94573.28
2023-04-08T10:15:22.579Z,94565.13
2023-04-08T10:17:49.294Z,94563.53
2023-04-08T10:20:36.361Z,94561.25
2023-04-08T10:23:07.815Z,94564.28
2023-04-08T10:25:41.655Z,94568.22
2023-04-08T10:28:11.443Z,94563.16
2023-04-08T10:30:43.489Z,94566.47
2023-04-08T10:33:40.877Z,94563.50
2023-04-08T10:36:09.710Z,94568.38
2023-04-08T10:38:36.558Z,94571.94
2023-04-08T10:41:03.705Z,94572.47
2023-04-08T10:43:34.568Z,94572.22
2023-04-08T10:46:02.059Z,94570.69
2023-04-08T10:48:31.549Z,94572.41
2023-04-08T10:50:59.677Z,94574.31
2023-04-08T10:53:36.935Z,94574.78
2023-04-08T10:56:06.276Z,94563.91
2023-04-08T10:58:33.765Z,94564.25
2023-04-08T11:01:06.648Z,94567.53
2023-04-08T11:03:35.196Z,94571.81
2023-04-08T11:06:03.029Z,94573.13
2023-04-08T11:08:30.975Z,94572.34
2023-04-08T11:10:58.685Z,94565.59
2023-04-08T11:13:25.994Z,94566.59
2023-04-08T11:15:52.849Z,94569.84
2023-04-08T11:18:21.806Z,94562.13
2023-04-08T11:20:51.388Z,94563.53
2023-04-08T11:23:18.724Z,94561.09
2023-04-08T11:25:47.003Z,94565.22
2023-04-08T11:28:14.727Z,94568.50
2023-04-08T11:30:42.148Z,94570.94
2023-04-08T11:33:09.580Z,94567.38
2023-04-08T11:35:41.715Z,94559.94
2023-04-08T11:38:09.665Z,94563.00
2023-04-08T11:40:36.419Z,94564.75
2023-04-08T11:43:15.460Z,94564.78
2023-04-08T11:45:42.954Z,94560.94
2023-04-08T11:48:10.801Z,94563.09
2023-04-08T11:50:37.450Z,94561.53
2023-04-08T11:53:04.311Z,94565.19
2023-04-08T11:55:32.359Z,94568.03
2023-04-08T11:58:04.342Z,94569.72
2023-04-08T12:00:31.450Z,94574.59
2023-04-08T12:02:58.354Z,94571.31
2023-04-08T12:05:25.112Z,94578.84
2023-04-08T12:07:51.897Z,94569.53
2023-04-08T12:10:18.640Z,94581.75
2023-04-08T12:12:45.430Z,94578.91
2023-04-08T12:15:12.268Z,94571.34
2023-04-08T12:17:39.069Z,94578.47
2023-04-08T12:20:06.921Z,94583.56
2023-04-08T12:22:33.833Z,94579.63
2023-04-08T12:25:00.540Z,94580.06
2023-04-08T12:27:27.211Z,94584.19
2023-04-08T12:29:53.929Z,94577.38
2023-04-08T12:32:20.752Z,94579.25
2023-04-08T12:34:47.592Z,94585.16
2023-04-08T12:37:14.273Z,94576.34
2023-04-08T12:39:40.952Z,94577.06
2023-04-08T12:42:07.990Z,94572.50
2023-04-08T12:44:34.946Z,94580.03
2023-04-08T12:47:01.677Z,94577.81
2023-04-08T12:49:28.370Z,94582.38
2023-04-08T12:51:55.141Z,94573.50
2023-04-08T12:54:21.930Z,94583.25
2023-04-08T12:56:49.024Z,94579.44
2023-04-08T12:59:16.121Z,94583.34
2023-04-08T13:01:43.346Z,94586.19
2023-04-08T13:04:10.119Z,94583.38
2023-04-08T13:06:36.843Z,94579.63
2023-04-08T13:09:03.559Z,94585.97
2023-04-08T13:11:30.225Z,94575.34
2023-04-08T13:13:56.921Z,94579.72
2023-04-08T13:16:23.646Z,94582.16
2023-04-08T13:18:50.630Z,94580.84
2023-04-08T13:21:17.448Z,94575.91
2023-04-08T13:23:44.171Z,94584.91
2023-04-08T13:26:10.832Z,94584.59
2023-04-08T13:28:46.688Z,94578.00
2023-04-08T13:31:23.046Z,94587.09
2023-04-08T13:33:49.704Z,94574.72
2023-04-08T13:36:16.472Z,94575.63
2023-04-08T13:38:43.803Z,94579.22
2023-04-08T13:41:10.486Z,94582.59
2023-04-08T13:43:37.358Z,94590.88
2023-04-08T13:46:04.046Z,94587.28
2023-04-08T13:48:30.897Z,94585.66
2023-04-08T13:50:57.585Z,94587.75
2023-04-08T13:53:24.331Z,94584.94
2023-04-08T13:55:55.084Z,94587.72
2023-04-08T13:58:24.315Z,94593.91
2023-04-08T14:00:52.093Z,94589.59
2023-04-08T14:03:19.433Z,94590.50
2023-04-08T14:05:46.205Z,94594.16
2023-04-08T14:08:13.722Z,94587.00
2023-04-08T14:10:42.339Z,94598.06
2023-04-08T14:13:09.407Z,94598.84
2023-04-08T14:15:36.256Z,94603.34
2023-04-08T14:18:03.362Z,94596.22
2023-04-08T14:20:30.186Z,94607.53
2023-04-08T14:22:56.996Z,94605.50
2023-04-08T14:25:24.464Z,94608.50
2023-04-08T14:27:58.587Z,94608.94
2023-04-08T14:30:27.269Z,94610.13
2023-04-08T14:32:54.814Z,94611.00
2023-04-08T14:35:21.869Z,94606.59
2023-04-08T14:37:48.528Z,94615.44
2023-04-08T14:40:15.141Z,94610.50
2023-04-08T14:42:42.064Z,94605.75
2023-04-08T14:45:09.178Z,94612.97
2023-04-08T14:47:36.050Z,94611.09
2023-04-08T14:50:02.872Z,94608.91
2023-04-08T14:52:29.626Z,94614.50
2023-04-08T14:54:56.392Z,94617.56
2023-04-08T14:57:23.045Z,94623.97
2023-04-08T14:59:49.737Z,94615.91
2023-04-08T15:02:16.545Z,94621.03
2023-04-08T15:04:43.250Z,94619.56
2023-04-08T15:07:10.031Z,94625.47
2023-04-08T15:09:36.627Z,94629.53
2023-04-08T15:12:03.396Z,94627.94
2023-04-08T15:14:30.030Z,94629.94
2023-04-08T15:16:56.787Z,94629.03
2023-04-08T15:19:23.779Z,94631.72
2023-04-08T15:21:50.783Z,94637.44
2023-04-08T15:24:17.642Z,94641.97
2023-04-08T15:26:44.364Z,94645.41
2023-04-08T15:29:11.075Z,94645.97
2023-04-08T15:31:37.914Z,94654.47
2023-04-08T15:34:04.722Z,94645.25
2023-04-08T15:36:31.507Z,94654.94
2023-04-08T15:38:58.245Z,94659.81
2023-04-08T15:41:24.965Z,94653.59
2023-04-08T15:43:53.173Z,94656.34
2023-04-08T15:46:23.570Z,94655.75
2023-04-08T15:48:50.787Z,94654.28
2023-04-08T15:51:18.136Z,94656.78
2023-04-08T15:53:44.922Z,94662.72
2023-04-08T15:56:16.332Z,94657.97
2023-04-08T15:58:44.336Z,94663.50
2023-04-08T16:01:11.311Z,94652.81
2023-04-08T16:03:38.787Z,94654.41
2023-04-08T16:06:08.748Z,94663.88
2023-04-08T16:08:35.515Z,94664.66
2023-04-08T16:11:04.019Z,94665.16
2023-04-08T16:13:31.352Z,94657.53
2023-04-08T16:16:01.071Z,94669.50
2023-04-08T16:18:28.436Z,94673.53
2023-04-08T16:20:55.829Z,94672.38
2023-04-08T16:23:23.021Z,94666.66
2023-04-08T16:25:49.679Z,94665.66
2023-04-08T16:28:16.371Z,94674.25
2023-04-08T16:30:44.095Z,94683.34
2023-04-08T16:33:14.079Z,94678.13
2023-04-08T16:35:40.803Z,94687.00
2023-04-08T16:38:07.477Z,94683.97
2023-04-08T16:40:34.694Z,94686.34
2023-04-08T16:43:02.282Z,94683.25
2023-04-08T16:45:30.115Z,94688.31
2023-04-08T16:47:57.401Z,94696.59
2023-04-08T16:50:24.694Z,94697.19
2023-04-08T16:52:51.729Z,94692.44
2023-04-08T16:55:19.380Z,94698.72
2023-04-08T16:57:46.331Z,94696.56
2023-04-08T17:00:13.494Z,94704.84
2023-04-08T17:02:40.430Z,94697.94
2023-04-08T17:05:07.580Z,94707.22
2023-04-08T17:07:34.409Z,94715.78
2023-04-08T17:10:01.051Z,94715.56
2023-04-08T17:12:27.813Z,94717.66
2023-04-08T17:14:54.577Z,94714.22
2023-04-08T17:17:21.622Z,94709.25
2023-04-08T17:19:48.529Z,94711.41
2023-04-08T17:22:15.384Z,94712.41
2023-04-08T17:24:42.117Z,94713.69
2023-04-08T17:27:08.774Z,94716.66
2023-04-08T17:29:35.745Z,94710.25
2023-04-08T17:32:02.707Z,94722.00
2023-04-08T17:34:31.286Z,94719.81
2023-04-08T17:36:58.042Z,94718.31
2023-04-08T17:39:24.940Z,94724.72
2023-04-08T17:41:51.736Z,94724.25
2023-04-08T17:44:18.387Z,94726.59
2023-04-08T17:46:45.086Z,94733.34
2023-04-08T17:49:12.860Z,94736.38
2023-04-08T17:51:39.730Z,94737.66
2023-04-08T17:54:06.397Z,94741.13
2023-04-08T17:56:33.454Z,94748.97
2023-04-08T17:59:00.421Z,94738.81
2023-04-08T18:01:27.360Z,94742.47
2023-04-08T18:03:54.481Z,94757.09
2023-04-08T18:06:21.509Z,94750.25
2023-04-08T18:08:48.405Z,94754.50
2023-04-08T18:11:15.184Z,94751.56
2023-04-08T18:13:42.040Z,94756.09
2023-04-08T18:16:19.287Z,94763.88
2023-04-08T18:18:46.953Z,94762.59
2023-04-08T18:21:15.216Z,94766.06
2023-04-08T18:23:42.166Z,94767.66
2023-04-08T18:26:09.361Z,94771.56
2023-04-08T18:28:36.312Z,94770.19
2023-04-08T18:31:03.067Z,94768.13
2023-04-08T18:33:29.756Z,94774.75
2023-04-08T18:35:58.928Z,94776.81
2023-04-08T18:38:26.667Z,94787.25
2023-04-08T18:40:53.360Z,94787.56
2023-04-08T18:43:20.089Z,94789.72
2023-04-08T18:45:46.788Z,94785.19
2023-04-08T18:48:13.548Z,94787.03
2023-04-08T18:50:40.478Z,94795.06
2023-04-08T18:53:08.034Z,94795.66
2023-04-08T18:55:38.934Z,94796.75
2023-04-08T18:58:05.688Z,94793.31
2023-04-08T19:00:32.389Z,94797.34
2023-04-08T19:02:59.163Z,94798.13
2023-04-08T19:05:26.276Z,94796.25
2023-04-08T19:07:53.167Z,94804.53
2023-04-08T19:10:21.687Z,94803.72
2023-04-08T19:12:48.380Z,94813.03
2023-04-08T19:15:15.130Z,94814.69
2023-04-08T19:17:41.879Z,94813.66
2023-04-08T19:20:08.983Z,94814.22
2023-04-08T19:22:35.666Z,94817.19
2023-04-08T19:25:02.290Z,94818.53
2023-04-08T19:27:29.051Z,94818.53
2023-04-08T19:29:55.918Z,94823.00
2023-04-08T19:32:22.710Z,94815.31
2023-04-08T19:34:49.448Z,94819.78
2023-04-08T19:37:16.182Z,94814.16
2023-04-08T19:39:42.841Z,94817.91
2023-04-08T19:42:10.921Z,94814.44
2023-04-08T19:44:38.029Z,94812.94
2023-04-08T19:47:04.938Z,94815.38
2023-04-08T19:49:32.159Z,94820.97
2023-04-08T19:51:58.977Z,94811.13
2023-04-08T19:54:25.624Z,94823.59
2023-04-08T19:56:52.333Z,94816.94
2023-04-08T19:59:19.411Z,94819.09
2023-04-08T20:01:47.258Z,94818.63
2023-04-08T20:04:13.918Z,94818.91
2023-04-08T20:06:41.022Z,94823.44
2023-04-08T20:09:07.698Z,94825.03
2023-04-08T20:11:34.664Z,94822.94
2023-04-08T20:14:01.590Z,94823.78
2023-04-08T20:16:28.294Z,94825.38
2023-04-08T20:18:54.959Z,94824.00
2023-04-08T20:21:21.730Z,94827.19
2023-04-08T20:23:48.363Z,94820.28
2023-04-08T20:26:15.703Z,94820.28
2023-04-08T20:28:43.600Z,94821.88
2023-04-08T20:31:10.525Z,94818.13
2023-04-08T20:33:44.326Z,94820.00
2023-04-08T20:36:14.190Z,94828.53
2023-04-08T20:38:42.786Z,94828.84
2023-04-08T20:41:09.767Z,94829.91
2023-04-08T20:43:36.787Z,94828.31
2023-04-08T20:46:03.505Z,94839.75
2023-04-08T20:48:30.137Z,94838.19
2023-04-08T20:50:57.575Z,94835.81
2023-04-08T20:53:24.659Z,94830.75
2023-04-08T20:55:51.849Z,94843.28
2023-04-08T20:58:18.596Z,94834.00
2023-04-08T21:00:47.562Z,94835.34
2023-04-08T21:03:14.841Z,94834.78
2023-04-08T21:05:41.909Z,94834.78
2023-04-08T21:08:09.123Z,94838.22
2023-04-08T21:10:35.865Z,94839.03
2023-04-08T21:13:02.550Z,94831.31
2023-04-08T21:15:29.393Z,94838.53
2023-04-08T21:17:56.180Z,94827.38
2023-04-08T21:20:23.208Z,94835.72
2023-04-08T21:22:50.353Z,94832.78
2023-04-08T21:25:18.075Z,94831.69
2023-04-08T21:27:44.894Z,94830.16
2023-04-08T21:30:11.881Z,94833.09
2023-04-08T21:32:38.912Z,94828.34
2023-04-08T21:35:05.893Z,94836.28
2023-04-08T21:37:32.707Z,94834.13
2023-04-08T21:39:59.377Z,94832.78
2023-04-08T21:42:27.494Z,94823.13
2023-04-08T21:44:54.111Z,94822.91
2023-04-08T21:47:20.842Z,94828.44
2023-04-08T21:49:48.561Z,94829.81
2023-04-08T21:52:15.684Z,94822.13
2023-04-08T21:54:42.421Z,94824.78
2023-04-08T21:57:09.318Z,94828.53
2023-04-08T21:59:36.051Z,94829.59
2023-04-08T22:02:04.618Z,94829.59
2023-04-08T22:04:31.291Z,94832.78
2023-04-08T22:06:58.269Z,94826.66
2023-04-08T22:09:24.972Z,94831.19
2023-04-08T22:11:51.695Z,94833.34
2023-04-08T22:14:18.486Z,94825.91
2023-04-08T22:16:45.376Z,94828.56
2023-04-08T22:19:12.114Z,94828.06
2023-04-08T22:21:39.047Z,94831.47
2023-04-08T22:24:06.142Z,94833.34
2023-04-08T22:26:33.128Z,94842.13
2023-04-08T22:28:59.781Z,94829.38
2023-04-08T22:31:27.148Z,94824.34
2023-04-08T22:33:53.826Z,94827.56
2023-04-08T22:36:20.612Z,94825.69
2023-04-08T22:38:47.284Z,94824.63
2023-04-08T22:41:21.718Z,94833.06
2023-04-08T22:43:49.217Z,94832.78
2023-04-08T22:46:18.215Z,94829.38
2023-04-08T22:48:45.511Z,94836.06
2023-04-08T22:51:12.789Z,94827.56
2023-04-08T22:53:39.689Z,94825.47
2023-04-08T22:56:06.660Z,94830.50
2023-04-08T22:58:33.330Z,94822.00
2023-04-08T23:01:00.130Z,94816.19
2023-04-08T23:03:26.903Z,94825.75
2023-04-08T23:05:53.737Z,94820.19
2023-04-08T23:08:20.444Z,94822.28
2023-04-08T23:10:47.091Z,94811.94
2023-04-08T23:13:14.387Z,94816.53
2023-04-08T23:15:41.168Z,94815.84
2023-04-08T23:18:07.809Z,94818.63
2023-04-08T23:20:35.659Z,94807.75
2023-04-08T23:23:03.551Z,94820.50
2023-04-08T23:25:30.569Z,94814.91
2023-04-08T23:27:57.369Z,94811.72
2023-04-08T23:30:24.109Z,94815.69
2023-04-08T23:32:50.957Z,94818.50
2023-04-08T23:35:17.786Z,94811.59
2023-04-08T23:37:44.456Z,94812.53
2023-04-08T23:40:11.326Z,94813.03
2023-04-08T23:42:37.946Z,94816.50
2023-04-08T23:45:05.593Z,94814.91
2023-04-08T23:47:32.311Z,94816.78
2023-04-08T23:49:58.952Z,94813.03
2023-04-08T23:52:25.967Z,94809.28
2023-04-08T23:54:52.682Z,94806.41
2023-04-08T23:57:22.283Z,94803.56
2023-04-08T23:59:48.964Z,94809.72
